Time;durP1;ratioP1;P1;durP2;ratioP2;P2;SDS_P1;SDS_P2;PMS_P1;PMS_P2;Temp;Humidity;BMP_temperature;BMP_pressure;BME280_temperature;BME280_humidity;BME280_pressure;Samples;Min_cycle;Max_cycle;Signal;HPM_P1;HPM_P2
2021/04/12 00:00:11;;;;;;;4.87;4.40;;;;;;;3.87;100.00;96830.53;5034780;28;20190;-89
2021/04/12 00:02:44;;;;;;;3.27;2.70;;;;;;;3.95;100.00;96830.81;5034389;28;20213;-88
2021/04/12 00:05:32;;;;;;;5.53;2.33;;;;;;;4.18;100.00;96829.28;5034576;28;20179;-89
2021/04/12 00:08:06;;;;;;;2.80;2.50;;;;;;;4.09;100.00;96838.56;5034450;28;20193;-89
2021/04/12 00:10:40;;;;;;;2.60;2.40;;;;;;;4.06;100.00;96841.34;5026812;28;20191;-89
2021/04/12 00:13:13;;;;;;;2.57;2.37;;;;;;;3.98;100.00;96841.88;5014475;28;20187;-88
2021/04/12 00:15:46;;;;;;;3.80;3.00;;;;;;;4.16;100.00;96844.16;5014848;28;20598;-88
2021/04/12 00:18:20;;;;;;;3.00;2.70;;;;;;;4.15;100.00;96852.88;5014843;28;20280;-89
2021/04/12 00:20:55;;;;;;;4.80;4.40;;;;;;;4.08;100.00;96846.44;5014361;28;20274;-89
2021/04/12 00:23:31;;;;;;;3.60;2.97;;;;;;;4.01;100.00;96818.25;5014494;28;20191;-90
2021/04/12 00:26:06;;;;;;;3.63;2.50;;;;;;;3.65;100.00;96818.13;5014472;28;20180;-89
2021/04/12 00:28:37;;;;;;;2.87;2.63;;;;;;;3.90;100.00;96818.16;5014744;28;20185;-89
2021/04/12 00:31:11;;;;;;;2.43;2.23;;;;;;;3.95;100.00;96826.47;5014432;28;20191;-89
2021/04/12 00:33:44;;;;;;;3.27;2.73;;;;;;;4.04;100.00;96831.03;5014307;28;20184;-89
2021/04/12 00:36:21;;;;;;;2.87;2.57;;;;;;;3.98;100.00;96831.47;5014333;28;20271;-88
2021/04/12 00:38:58;;;;;;;2.97;2.77;;;;;;;3.90;100.00;96843.31;5014190;28;20641;-89
2021/04/12 00:41:46;;;;;;;2.70;2.43;;;;;;;3.94;100.00;96824.78;5028734;28;20585;-88
2021/04/12 00:44:26;;;;;;;3.43;3.13;;;;;;;4.11;100.00;96818.44;5032975;28;20187;-87
2021/04/12 00:47:04;;;;;;;2.47;2.27;;;;;;;3.81;100.00;96811.81;5033716;28;20736;-89
2021/04/12 00:49:42;;;;;;;2.87;2.60;;;;;;;3.78;100.00;96801.63;5033582;28;20182;-88
2021/04/12 00:52:43;;;;;;;5.50;2.90;;;;;;;3.64;100.00;96798.25;5033351;28;20238;-88
2021/04/12 00:55:29;;;;;;;4.37;2.50;;;;;;;3.41;100.00;96790.25;5033536;28;20281;-89
2021/04/12 00:58:11;;;;;;;3.63;3.07;;;;;;;3.04;100.00;96771.88;5033611;28;20277;-89
2021/04/12 01:00:41;;;;;;;2.50;2.20;;;;;;;3.37;100.00;96761.97;5033833;28;20270;-88
2021/04/12 01:03:27;;;;;;;4.07;2.80;;;;;;;3.16;100.00;96761.63;5033940;28;20191;-89
2021/04/12 01:06:04;;;;;;;6.27;2.87;;;;;;;2.91;100.00;96732.06;5033369;28;20187;-88
2021/04/12 01:09:00;;;;;;;2.70;2.50;;;;;;;2.69;100.00;96698.88;5033757;28;20239;-89
2021/04/12 01:11:57;;;;;;;3.77;2.60;;;;;;;2.78;100.00;96681.88;5020773;28;20194;-89
2021/04/12 01:14:56;;;;;;;3.87;2.60;;;;;;;3.16;100.00;96660.34;5033209;28;20190;-89
2021/04/12 01:17:52;;;;;;;3.33;3.03;;;;;;;3.32;100.00;96645.34;5033468;28;20187;-89
2021/04/12 01:20:58;;;;;;;4.37;3.13;;;;;;;3.10;100.00;96646.81;5033339;28;20187;-89
2021/04/12 01:24:08;;;;;;;9.20;4.57;;;;;;;3.20;100.00;96660.00;4999824;28;20204;-88
2021/04/12 01:27:08;;;;;;;8.57;6.30;;;;;;;2.90;100.00;96708.78;5033291;28;20278;-89
2021/04/12 01:30:13;;;;;;;4.30;3.37;;;;;;;3.23;100.00;96685.78;5029974;28;20202;-90
2021/04/12 01:33:18;;;;;;;5.60;3.17;;;;;;;2.80;100.00;96690.38;5033170;28;20199;-89
2021/04/12 01:36:23;;;;;;;4.60;3.00;;;;;;;3.15;100.00;96667.25;5033390;28;20303;-89
2021/04/12 01:39:09;;;;;;;5.57;4.57;;;;;;;3.00;100.00;96671.72;4953136;29;20206;-88
2021/04/12 01:41:52;;;;;;;38.40;22.87;;;;;;;3.12;100.00;96674.44;4953175;29;20345;-89
2021/04/12 01:44:41;;;;;;;35.20;20.73;;;;;;;3.18;100.00;96664.47;5010774;28;20285;-89
2021/04/12 01:47:32;;;;;;;13.63;9.27;;;;;;;3.09;100.00;96663.34;5033195;28;20209;-90
2021/04/12 01:50:14;;;;;;;6.93;5.77;;;;;;;3.30;100.00;96644.63;5032816;28;20659;-89
2021/04/12 01:53:04;;;;;;;19.60;10.63;;;;;;;3.20;100.00;96662.59;5032657;28;20234;-90
2021/04/12 01:55:44;;;;;;;7.00;5.13;;;;;;;3.28;100.00;96665.50;5034712;28;20293;-90
2021/04/12 01:58:24;;;;;;;9.60;6.30;;;;;;;3.24;100.00;96666.66;5039329;28;20190;-90
2021/04/12 02:01:02;;;;;;;8.37;6.20;;;;;;;3.25;100.00;96654.50;5039328;28;20725;-89
2021/04/12 02:03:49;;;;;;;5.80;4.37;;;;;;;2.79;100.00;96653.22;5039694;28;20625;-89
2021/04/12 02:06:36;;;;;;;5.20;4.30;;;;;;;2.61;100.00;96608.53;5039448;28;20191;-89
2021/04/12 02:09:39;;;;;;;6.27;4.07;;;;;;;2.77;100.00;96589.34;5039612;28;20217;-90
2021/04/12 02:12:19;;;;;;;4.30;3.90;;;;;;;3.04;100.00;96571.91;5034445;28;20194;-89
2021/04/12 02:15:11;;;;;;;5.73;3.67;;;;;;;3.22;100.00;96584.56;5019423;28;20197;-90
2021/04/12 02:17:53;;;;;;;6.60;4.20;;;;;;;3.24;100.00;96574.91;5016475;28;20205;-89
2021/04/12 02:20:26;;;;;;;9.33;3.93;;;;;;;3.24;100.00;96586.13;5019456;28;20183;-89
2021/04/12 02:23:07;;;;;;;3.50;3.00;;;;;;;3.14;100.00;96594.66;5019167;28;20297;-89
2021/04/12 02:25:55;;;;;;;3.93;3.03;;;;;;;3.02;100.00;96578.16;5019936;28;20194;-89
2021/04/12 02:28:40;;;;;;;3.50;2.90;;;;;;;2.97;100.00;96575.84;5019188;28;20227;-89
2021/04/12 02:31:21;;;;;;;3.67;3.30;;;;;;;2.97;100.00;96569.84;5019540;28;20270;-89
2021/04/12 02:34:00;;;;;;;3.50;2.97;;;;;;;2.85;100.00;96555.94;5019207;28;20238;-89
2021/04/12 02:36:41;;;;;;;4.53;3.17;;;;;;;2.77;100.00;96540.88;5019414;28;20191;-89
2021/04/12 02:39:31;;;;;;;3.73;3.23;;;;;;;2.92;100.00;96531.22;5019439;28;20317;-88
2021/04/12 02:42:11;;;;;;;4.50;3.53;;;;;;;2.69;100.00;96539.72;5018977;28;20212;-89
2021/04/12 02:44:54;;;;;;;6.90;3.70;;;;;;;2.23;100.00;96514.25;5019109;28;20274;-89
2021/04/12 02:48:00;;;;;;;5.03;3.27;;;;;;;2.07;100.00;96478.97;5019100;28;20187;-89
2021/04/12 02:50:49;;;;;;;4.23;3.30;;;;;;;2.42;100.00;96461.97;5014241;28;20718;-89
2021/04/12 02:53:34;;;;;;;3.40;3.07;;;;;;;2.60;100.00;96471.97;5015656;28;20245;-89
2021/04/12 02:56:20;;;;;;;3.67;3.17;;;;;;;2.43;100.00;96474.88;5019022;28;20222;-89
2021/04/12 02:59:25;;;;;;;4.83;3.07;;;;;;;2.52;100.00;96476.00;5019349;28;20197;-89
2021/04/12 03:02:36;;;;;;;3.87;2.70;;;;;;;2.61;100.00;96467.59;4989287;28;20310;-89
2021/04/12 03:05:29;;;;;;;3.53;3.23;;;;;;;2.35;100.00;96459.78;5030131;28;20566;-89
2021/04/12 03:08:23;;;;;;;4.97;3.10;;;;;;;2.23;100.00;96457.22;5022376;28;20211;-88
2021/04/12 03:11:16;;;;;;;5.37;4.17;;;;;;;2.08;100.00;96449.53;5035681;28;20191;-89
2021/04/12 03:14:11;;;;;;;4.00;3.70;;;;;;;2.09;100.00;96430.44;5035575;28;20191;-88
2021/04/12 03:17:06;;;;;;;4.13;3.73;;;;;;;2.37;100.00;96402.63;5035473;28;20248;-89
2021/04/12 03:20:00;;;;;;;5.10;4.67;;;;;;;2.56;100.00;96397.84;5028530;28;20677;-89
2021/04/12 03:22:49;;;;;;;6.33;4.20;;;;;;;2.66;100.00;96420.56;5035484;28;20293;-89
2021/04/12 03:25:27;;;;;;;6.03;5.47;;;;;;;2.57;100.00;96394.31;5004866;28;20241;-87
2021/04/12 03:28:19;;;;;;;6.10;4.30;;;;;;;2.65;100.00;96419.72;5031569;28;20200;-87
2021/04/12 03:31:07;;;;;;;3.93;3.63;;;;;;;2.29;100.00;96418.72;5006875;28;20202;-87
2021/04/12 03:33:41;;;;;;;5.30;4.80;;;;;;;2.16;100.00;96409.28;5032334;28;20206;-86
2021/04/12 03:36:22;;;;;;;4.50;3.80;;;;;;;2.13;100.00;96413.75;5014562;28;20230;-88
2021/04/12 03:39:01;;;;;;;4.77;4.37;;;;;;;2.38;100.00;96402.53;5014964;28;20183;-87
2021/04/12 03:41:58;;;;;;;4.03;3.60;;;;;;;2.55;100.00;96405.72;5015082;28;20264;-87
2021/04/12 03:45:05;;;;;;;4.93;3.80;;;;;;;2.37;100.00;96406.06;5015259;28;20190;-88
2021/04/12 03:48:21;;;;;;;4.83;4.43;;;;;;;2.68;100.00;96405.72;5015185;28;20194;-86
2021/04/12 03:51:20;;;;;;;4.93;4.43;;;;;;;2.54;100.00;96430.03;5014562;28;20241;-87
2021/04/12 03:54:15;;;;;;;5.03;4.60;;;;;;;2.61;100.00;96424.31;4974125;28;20231;-88
2021/04/12 03:57:02;;;;;;;17.83;12.23;;;;;;;2.14;100.00;96424.94;5014780;28;20736;-87
2021/04/12 03:59:43;;;;;;;25.50;20.53;;;;;;;1.79;100.00;96383.22;5014632;28;20252;-87
2021/04/12 04:02:40;;;;;;;20.57;17.67;;;;;;;1.46;100.00;96337.06;5014372;28;20218;-87
2021/04/12 04:05:29;;;;;;;5.27;4.77;;;;;;;1.53;100.00;96289.94;5014455;28;20265;-88
2021/04/12 04:08:19;;;;;;;4.57;3.60;;;;;;;1.67;100.00;96289.84;5014368;28;20278;-90
2021/04/12 04:11:07;;;;;;;5.40;4.53;;;;;;;2.01;100.00;96292.72;5014422;28;20191;-90
2021/04/12 04:13:54;;;;;;;5.30;4.80;;;;;;;2.31;100.00;96284.56;5014558;28;20257;-89
2021/04/12 04:16:35;;;;;;;7.10;5.47;;;;;;;2.49;100.00;96289.41;5014344;28;20194;-89
2021/04/12 04:19:11;;;;;;;20.37;10.10;;;;;;;2.46;100.00;96306.03;5013567;28;20279;-89
2021/04/12 04:22:06;;;;;;;17.27;8.23;;;;;;;2.55;100.00;96314.91;5014785;28;20562;-88
2021/04/12 04:25:11;;;;;;;11.47;9.40;;;;;;;2.70;100.00;96331.16;5014341;28;20188;-89
2021/04/12 04:28:00;;;;;;;16.93;14.00;;;;;;;2.63;100.00;96333.38;5014077;28;20199;-88
2021/04/12 04:30:45;;;;;;;15.13;13.60;;;;;;;2.66;100.00;96324.53;5014484;28;20188;-89
2021/04/12 04:33:55;;;;;;;10.83;9.80;;;;;;;2.69;100.00;96334.72;5014252;28;20253;-89
2021/04/12 04:36:34;;;;;;;9.27;8.30;;;;;;;2.62;100.00;96335.13;4968272;28;20203;-89
2021/04/12 04:39:32;;;;;;;6.77;6.07;;;;;;;2.63;100.00;96346.34;5014047;28;20274;-89
2021/04/12 04:42:23;;;;;;;7.43;6.73;;;;;;;2.55;100.00;96333.91;5013649;28;20208;-89
2021/04/12 04:45:22;;;;;;;8.13;6.90;;;;;;;2.74;100.00;96304.91;5014304;28;20660;-89
2021/04/12 04:48:22;;;;;;;13.90;6.27;;;;;;;2.72;100.00;96327.53;5007220;28;20205;-89
2021/04/12 04:51:21;;;;;;;8.63;6.33;;;;;;;2.94;100.00;96339.81;5010471;28;20214;-89
2021/04/12 04:54:08;;;;;;;5.27;4.37;;;;;;;3.04;100.00;96351.19;5013849;28;20258;-89
2021/04/12 04:56:42;;;;;;;5.53;4.33;;;;;;;3.11;100.00;96356.78;5014056;28;20194;-89
2021/04/12 04:59:27;;;;;;;7.90;5.10;;;;;;;3.09;100.00;96353.47;5013745;28;20187;-89
2021/04/12 05:02:36;;;;;;;6.87;5.37;;;;;;;3.08;100.00;96334.47;5013757;28;20207;-89
2021/04/12 05:05:29;;;;;;;6.13;5.57;;;;;;;2.90;100.00;96338.38;5013987;28;20180;-89
2021/04/12 05:08:31;;;;;;;8.47;6.70;;;;;;;2.90;100.00;96265.69;5013609;28;20224;-90
2021/04/12 05:11:20;;;;;;;9.17;6.50;;;;;;;3.14;100.00;96236.25;5013497;28;20183;-90
2021/04/12 05:14:10;;;;;;;5.97;5.37;;;;;;;3.24;100.00;96232.88;5013787;28;20234;-91
2021/04/12 05:16:53;;;;;;;7.17;6.23;;;;;;;3.42;100.00;96269.63;5013491;28;20270;-90
2021/04/12 05:19:51;;;;;;;8.13;6.67;;;;;;;3.51;100.00;96291.50;5013487;28;20187;-89
2021/04/12 05:22:59;;;;;;;9.10;7.13;;;;;;;3.50;100.00;96302.88;5013396;28;20257;-88
2021/04/12 05:25:45;;;;;;;6.00;5.40;;;;;;;3.80;100.00;96297.13;4997029;28;20352;-88
2021/04/12 05:28:33;;;;;;;10.83;7.00;;;;;;;4.07;100.00;96325.41;5013519;28;20735;-87
2021/04/12 05:31:24;;;;;;;10.13;7.93;;;;;;;4.07;100.00;96345.38;5013221;28;20218;-87
2021/04/12 05:34:17;;;;;;;11.67;8.93;;;;;;;4.18;100.00;96333.19;5013134;28;20194;-87
2021/04/12 05:36:58;;;;;;;13.53;8.00;;;;;;;4.38;100.00;96325.66;5012918;28;20199;-86
2021/04/12 05:39:41;;;;;;;14.83;8.37;;;;;;;4.43;100.00;96354.72;5013458;28;20246;-86
2021/04/12 05:42:32;;;;;;;9.93;7.70;;;;;;;4.69;100.00;96382.19;5012804;28;20203;-86
2021/04/12 05:45:10;;;;;;;10.27;7.07;;;;;;;4.79;100.00;96384.06;5012786;28;20188;-87
2021/04/12 05:48:24;;;;;;;14.60;8.93;;;;;;;4.95;100.00;96389.72;5013178;28;20207;-87
2021/04/12 05:51:02;;;;;;;55.63;27.97;;;;;;;5.20;100.00;96422.50;4944460;28;20204;-87
2021/04/12 05:54:06;;;;;;;146.50;67.70;;;;;;;5.51;100.00;96459.13;5006098;28;20231;-88
2021/04/12 05:56:46;;;;;;;22.77;14.87;;;;;;;5.73;100.00;96485.16;5012973;28;20187;-87
2021/04/12 05:59:38;;;;;;;20.47;12.43;;;;;;;6.05;100.00;96500.00;5013094;28;20278;-88
2021/04/12 06:02:25;;;;;;;9.40;7.07;;;;;;;6.18;100.00;96535.41;5013016;28;20293;-87
2021/04/12 06:05:02;;;;;;;33.63;20.47;;;;;;;6.29;100.00;96565.88;5013110;28;20191;-87
2021/04/12 06:08:09;;;;;;;33.63;20.77;;;;;;;6.42;100.00;96600.47;5013125;28;20198;-88
2021/04/12 06:10:51;;;;;;;23.97;16.43;;;;;;;6.64;100.00;96590.88;5012874;28;20184;-88
2021/04/12 06:14:04;;;;;;;47.63;26.17;;;;;;;6.89;100.00;96577.44;5012821;28;20251;-87
2021/04/12 06:16:58;;;;;;;22.17;13.93;;;;;;;7.04;100.00;96582.34;5012773;28;20191;-87
2021/04/12 06:20:05;;;;;;;7.33;6.20;;;;;;;7.25;100.00;96626.75;5012686;28;20188;-87
2021/04/12 06:23:06;;;;;;;9.40;7.43;;;;;;;7.43;100.00;96638.28;5012988;28;20230;-88
2021/04/12 06:25:54;;;;;;;12.30;9.90;;;;;;;7.67;100.00;96622.28;5013013;28;20634;-88
2021/04/12 06:28:48;;;;;;;9.10;6.67;;;;;;;7.81;100.00;96647.25;5012799;28;20188;-88
2021/04/12 06:32:00;;;;;;;9.40;6.13;;;;;;;7.84;100.00;96666.13;5012967;28;20216;-87
2021/04/12 06:35:12;;;;;;;14.10;11.00;;;;;;;8.21;100.00;96657.72;5012989;28;20222;-88
2021/04/12 06:37:58;;;;;;;6.60;5.90;;;;;;;8.37;100.00;96696.47;5012863;28;20212;-88
2021/04/12 06:40:51;;;;;;;10.10;7.50;;;;;;;8.50;100.00;96715.44;5012881;28;20580;-87
2021/04/12 06:44:06;;;;;;;8.33;7.50;;;;;;;8.79;100.00;96704.16;5015237;28;20207;-87
2021/04/12 06:47:08;;;;;;;7.00;5.43;;;;;;;9.02;100.00;96721.28;5016276;28;20206;-87
2021/04/12 06:50:15;;;;;;;9.77;7.00;;;;;;;9.05;100.00;96733.28;5013080;28;20214;-88
2021/04/12 06:53:16;;;;;;;5.33;4.53;;;;;;;9.47;100.00;96752.19;5016027;28;20257;-88
2021/04/12 06:56:18;;;;;;;5.00;4.20;;;;;;;9.81;100.00;96758.78;5016438;28;20221;-88
2021/04/12 06:59:30;;;;;;;4.87;4.37;;;;;;;10.13;100.00;96761.84;5016073;28;20203;-87
2021/04/12 07:02:40;;;;;;;3.10;2.80;;;;;;;10.41;100.00;96798.69;5006220;28;20223;-88
2021/04/12 07:05:26;;;;;;;5.97;4.23;;;;;;;10.81;100.00;96795.75;5016088;28;20192;-88
2021/04/12 07:08:23;;;;;;;6.07;5.47;;;;;;;11.10;100.00;96800.81;5015733;28;20184;-88
2021/04/12 07:11:29;;;;;;;6.37;3.97;;;;;;;11.35;100.00;96791.34;5015636;28;20199;-89
2021/04/12 07:14:47;;;;;;;8.73;4.70;;;;;;;11.60;100.00;96797.69;4993778;28;20203;-88
2021/04/12 07:17:44;;;;;;;5.43;4.50;;;;;;;11.57;100.00;96797.13;5015781;28;20579;-87
2021/04/12 07:20:52;;;;;;;6.30;5.70;;;;;;;12.04;100.00;96821.41;4976191;28;20210;-88
2021/04/12 07:23:50;;;;;;;9.63;4.27;;;;;;;11.86;100.00;96841.69;4937688;28;20387;-87
2021/04/12 07:26:53;;;;;;;10.10;4.27;;;;;;;12.32;100.00;96839.72;5012551;28;20683;-87
2021/04/12 07:30:01;;;;;;;4.47;4.07;;;;;;;12.46;100.00;96846.22;5015696;28;20210;-87
2021/04/12 07:33:07;;;;;;;6.93;3.90;;;;;;;12.75;100.00;96852.00;5015241;28;20284;-87
2021/04/12 07:36:10;;;;;;;4.37;3.63;;;;;;;12.99;100.00;96851.25;4966484;28;20231;-87
2021/04/12 07:39:12;;;;;;;34.90;24.77;;;;;;;13.36;100.00;96865.09;5015397;28;20199;-87
2021/04/12 07:42:24;;;;;;;16.90;11.30;;;;;;;13.71;100.00;96864.00;5015099;28;20685;-87
2021/04/12 07:45:38;;;;;;;4.73;4.33;;;;;;;14.12;100.00;96870.13;4967376;28;20293;-87
2021/04/12 07:48:41;;;;;;;11.60;7.63;;;;;;;14.62;100.00;96886.81;5007025;28;20207;-88
2021/04/12 07:51:56;;;;;;;3.50;3.20;;;;;;;14.00;100.00;96890.78;5015303;28;20230;-87
2021/04/12 07:55:12;;;;;;;5.43;3.63;;;;;;;14.78;100.00;96905.25;5014858;28;20204;-87
2021/04/12 07:58:46;;;;;;;11.37;7.67;;;;;;;14.61;100.00;96904.47;4935321;29;20246;-87
2021/04/12 08:01:45;;;;;;;6.83;5.40;;;;;;;15.55;100.00;96917.88;4996313;28;20198;-87
2021/04/12 08:04:51;;;;;;;11.20;7.90;;;;;;;15.49;100.00;96908.00;5014730;28;20187;-87
2021/04/12 08:08:07;;;;;;;6.40;5.23;;;;;;;15.55;100.00;96894.88;4987286;28;20206;-87
2021/04/12 08:11:07;;;;;;;10.07;7.17;;;;;;;15.05;100.00;96895.28;5014466;28;20229;-87
2021/04/12 08:14:22;;;;;;;11.93;5.30;;;;;;;15.45;100.00;96881.03;4974265;28;20199;-87
2021/04/12 08:17:31;;;;;;;11.50;10.37;;;;;;;15.71;100.00;96878.06;5014513;28;20203;-87
2021/04/12 08:20:36;;;;;;;5.83;5.23;;;;;;;15.67;100.00;96874.13;4959821;28;20213;-87
2021/04/12 08:23:45;;;;;;;5.80;4.43;;;;;;;15.97;100.00;96880.38;4977497;28;20270;-87
2021/04/12 08:26:56;;;;;;;5.90;5.30;;;;;;;16.59;100.00;96888.13;5014245;28;20194;-87
2021/04/12 08:30:23;;;;;;;9.13;6.03;;;;;;;17.07;100.00;96885.16;5014453;28;20250;-87
2021/04/12 08:33:43;;;;;;;8.67;7.77;;;;;;;16.52;100.00;96891.66;4967869;28;20199;-86
2021/04/12 08:36:54;;;;;;;6.80;5.47;;;;;;;16.27;100.00;96889.25;5014228;28;20653;-87
2021/04/12 08:40:08;;;;;;;6.47;5.87;;;;;;;16.06;100.00;96895.22;5013833;28;20235;-87
2021/04/12 08:43:14;;;;;;;4.27;3.87;;;;;;;15.92;100.00;96883.56;5013681;28;20212;-87
2021/04/12 08:46:26;;;;;;;3.70;3.23;;;;;;;15.81;100.00;96881.31;5000043;28;20637;-86
2021/04/12 08:49:11;;;;;;;4.70;4.30;;;;;;;16.50;100.00;96883.09;4971057;28;20203;-87
2021/04/12 08:52:14;;;;;;;5.33;3.80;;;;;;;16.38;100.00;96883.53;5013494;28;20249;-86
2021/04/12 08:55:00;;;;;;;5.60;4.30;;;;;;;16.37;100.00;96881.03;5013461;28;20202;-86
2021/04/12 08:58:13;;;;;;;4.33;3.90;;;;;;;16.58;100.00;96873.19;5013594;28;20223;-86
2021/04/12 09:01:27;;;;;;;4.53;3.90;;;;;;;16.56;100.00;96879.72;4915209;29;20195;-87
2021/04/12 09:04:33;;;;;;;4.83;3.87;;;;;;;16.40;100.00;96878.03;5003095;28;20235;-87
2021/04/12 09:07:29;;;;;;;14.13;9.03;;;;;;;16.81;100.00;96872.34;5013336;28;20214;-87
2021/04/12 09:10:35;;;;;;;8.23;7.43;;;;;;;16.66;100.00;96874.97;5013395;28;20184;-87
2021/04/12 09:13:44;;;;;;;4.80;3.20;;;;;;;16.72;100.00;96866.25;4990750;28;20245;-87
2021/04/12 09:16:28;;;;;;;3.53;3.23;;;;;;;16.29;100.00;96852.75;4974012;28;20269;-87
2021/04/12 09:19:37;;;;;;;8.93;3.70;;;;;;;17.31;100.00;96852.13;5013213;28;20196;-87
2021/04/12 09:22:36;;;;;;;6.57;4.40;;;;;;;17.50;100.00;96864.03;5003426;28;20220;-87
2021/04/12 09:25:37;;;;;;;6.03;4.70;;;;;;;17.30;100.00;96856.63;5013107;28;20197;-87
2021/04/12 09:28:28;;;;;;;4.57;2.80;;;;;;;17.75;100.00;96846.69;5012999;28;20261;-87
2021/04/12 09:31:27;;;;;;;3.33;3.00;;;;;;;17.95;100.00;96840.78;5012940;28;20209;-86
2021/04/12 09:34:37;;;;;;;4.97;4.50;;;;;;;17.87;100.00;96839.06;5005093;28;20205;-87
2021/04/12 09:37:37;;;;;;;4.93;3.53;;;;;;;17.90;100.00;96825.38;5012729;28;20290;-87
2021/04/12 09:40:37;;;;;;;6.13;4.03;;;;;;;17.16;100.00;96838.88;4996501;28;20585;-87
2021/04/12 09:43:31;;;;;;;4.27;3.50;;;;;;;17.59;100.00;96830.97;5012984;28;20236;-87
2021/04/12 09:46:37;;;;;;;3.73;3.10;;;;;;;18.17;100.00;96830.94;5012808;28;20648;-87
2021/04/12 09:49:31;;;;;;;4.70;3.30;;;;;;;18.71;100.00;96832.97;5012837;28;20186;-86
2021/04/12 09:52:31;;;;;;;4.33;3.27;;;;;;;18.26;100.00;96830.59;5012116;28;20238;-86
2021/04/12 09:55:35;;;;;;;4.47;3.27;;;;;;;18.34;100.00;96823.50;5012655;28;20206;-87
2021/04/12 09:59:02;;;;;;;3.73;2.87;;;;;;;18.07;100.00;96836.59;5012910;28;20551;-87
2021/04/12 10:01:59;;;;;;;6.90;5.97;;;;;;;18.10;100.00;96814.09;5012683;28;20190;-87
2021/04/12 10:04:52;;;;;;;5.80;4.27;;;;;;;17.94;100.00;96820.50;5009710;28;20206;-86
2021/04/12 10:08:05;;;;;;;7.23;5.13;;;;;;;17.92;100.00;96811.91;5012675;28;20230;-86
2021/04/12 10:10:58;;;;;;;7.17;3.83;;;;;;;18.42;100.00;96797.53;4933362;29;20206;-87
2021/04/12 10:13:41;;;;;;;6.60;4.00;;;;;;;18.24;100.00;96795.38;5012700;28;20211;-87
2021/04/12 10:16:19;;;;;;;4.47;3.97;;;;;;;18.15;100.00;96804.53;5014337;28;20197;-86
2021/04/12 10:18:58;;;;;;;6.00;4.50;;;;;;;17.87;100.00;96803.66;5016495;28;20202;-87
2021/04/12 10:21:32;;;;;;;5.83;3.70;;;;;;;18.04;100.00;96797.06;5016760;28;20671;-87
2021/04/12 10:24:08;;;;;;;9.67;3.60;;;;;;;18.08;100.00;96789.53;5016317;28;20206;-86
2021/04/12 10:26:42;;;;;;;3.93;3.33;;;;;;;17.98;100.00;96785.38;5016703;28;20314;-87
2021/04/12 10:29:15;;;;;;;6.37;4.27;;;;;;;18.39;100.00;96797.13;5016389;28;20675;-86
2021/04/12 10:31:49;;;;;;;6.10;4.70;;;;;;;18.12;100.00;96794.28;5016559;28;20202;-86
2021/04/12 10:34:25;;;;;;;5.73;4.07;;;;;;;17.59;100.00;96791.13;5016547;28;20547;-86
2021/04/12 10:37:01;;;;;;;3.67;3.37;;;;;;;17.76;100.00;96781.91;5016008;28;20186;-86
2021/04/12 10:39:43;;;;;;;4.70;3.40;;;;;;;18.13;100.00;96787.94;5015820;28;20194;-87
2021/04/12 10:42:32;;;;;;;4.50;4.00;;;;;;;18.03;100.00;96792.75;5016215;28;20213;-86
2021/04/12 10:45:09;;;;;;;7.53;4.70;;;;;;;17.96;100.00;96778.59;5016163;28;20194;-86
2021/04/12 10:47:54;;;;;;;6.70;4.00;;;;;;;17.83;100.00;96787.28;5016217;28;20187;-87
2021/04/12 10:50:30;;;;;;;6.40;3.10;;;;;;;18.11;100.00;96784.63;5015804;28;20198;-87
2021/04/12 10:53:21;;;;;;;3.93;3.30;;;;;;;17.86;100.00;96789.56;5015585;28;20234;-86
2021/04/12 10:55:56;;;;;;;4.63;3.60;;;;;;;17.61;100.00;96788.28;5015864;28;20221;-86
2021/04/12 10:58:38;;;;;;;4.53;3.60;;;;;;;17.48;100.00;96784.47;5015889;28;20251;-87
2021/04/12 11:01:08;;;;;;;3.37;3.07;;;;;;;17.76;100.00;96784.56;5015810;28;20194;-86
2021/04/12 11:03:47;;;;;;;6.30;3.97;;;;;;;18.08;100.00;96771.75;5015528;28;20229;-87
2021/04/12 11:06:47;;;;;;;5.63;3.33;;;;;;;17.88;100.00;96776.91;5015828;28;20179;-86
2021/04/12 11:09:40;;;;;;;4.10;3.67;;;;;;;17.65;100.00;96778.91;5015673;28;20195;-87
2021/04/12 11:12:14;;;;;;;6.63;3.10;;;;;;;17.72;100.00;96766.50;5015602;28;20190;-87
2021/04/12 11:14:51;;;;;;;4.83;3.50;;;;;;;17.91;100.00;96762.38;5015604;28;20289;-86
2021/04/12 11:17:33;;;;;;;4.07;3.77;;;;;;;17.69;100.00;96767.69;5015446;28;20190;-86
2021/04/12 11:20:08;;;;;;;4.90;3.33;;;;;;;17.60;100.00;96776.84;5015490;28;20234;-86
2021/04/12 11:22:48;;;;;;;4.47;3.60;;;;;;;17.76;100.00;96757.97;5015470;28;20218;-87
2021/04/12 11:25:22;;;;;;;4.97;4.07;;;;;;;17.64;100.00;96778.09;5015651;28;20195;-87
2021/04/12 11:28:13;;;;;;;5.40;3.77;;;;;;;18.08;100.00;96762.91;5014836;28;20248;-87
2021/04/12 11:30:58;;;;;;;7.63;3.17;;;;;;;18.54;100.00;96760.56;5015503;28;20191;-86
2021/04/12 11:33:44;;;;;;;3.97;3.57;;;;;;;18.69;100.00;96749.78;5015350;28;20198;-86
2021/04/12 11:36:22;;;;;;;4.47;4.07;;;;;;;18.00;100.00;96756.72;5015145;28;20282;-87
2021/04/12 11:39:01;;;;;;;4.53;3.40;;;;;;;17.91;100.00;96752.59;5014978;28;20197;-86
2021/04/12 11:41:35;;;;;;;5.67;3.87;;;;;;;17.77;100.00;96756.97;5015321;28;20197;-87
2021/04/12 11:44:10;;;;;;;6.50;3.73;;;;;;;18.39;100.00;96751.88;5015061;28;20214;-87
2021/04/12 11:47:01;;;;;;;8.07;4.10;;;;;;;18.69;100.00;96747.13;5014778;28;20186;-86
2021/04/12 11:49:40;;;;;;;7.33;4.00;;;;;;;18.38;100.00;96751.06;4994566;28;20553;-86
2021/04/12 11:52:10;;;;;;;4.20;3.77;;;;;;;18.52;100.00;96757.28;5014511;28;20242;-86
2021/04/12 11:54:42;;;;;;;3.90;3.03;;;;;;;18.02;100.00;96757.38;5014772;28;20250;-87
2021/04/12 11:57:30;;;;;;;3.67;3.33;;;;;;;18.00;100.00;96754.06;5014544;28;20198;-86
2021/04/12 12:00:05;;;;;;;5.47;3.90;;;;;;;18.58;100.00;96745.84;5014523;28;20203;-87
2021/04/12 12:02:45;;;;;;;7.40;3.90;;;;;;;18.27;100.00;96741.78;5014446;28;20250;-87
2021/04/12 12:05:15;;;;;;;4.77;3.90;;;;;;;18.39;100.00;96734.09;5014481;28;20195;-87
2021/04/12 12:07:47;;;;;;;5.40;3.80;;;;;;;19.04;100.00;96729.25;5014447;28;20203;-87
2021/04/12 12:10:32;;;;;;;4.23;3.83;;;;;;;19.22;100.00;96728.69;5014743;28;20679;-87
2021/04/12 12:13:03;;;;;;;5.83;3.50;;;;;;;18.49;100.00;96731.03;5014572;28;20188;-87
2021/04/12 12:15:44;;;;;;;4.60;3.87;;;;;;;19.23;100.00;96712.50;5014500;28;20191;-87
2021/04/12 12:18:19;;;;;;;3.90;3.43;;;;;;;19.11;100.00;96719.44;5014406;28;20237;-87
2021/04/12 12:20:50;;;;;;;4.37;3.30;;;;;;;19.08;100.00;96711.84;5014238;28;20241;-86
2021/04/12 12:23:39;;;;;;;3.77;3.47;;;;;;;18.24;100.00;96726.19;5014058;28;20207;-86
2021/04/12 12:26:14;;;;;;;6.57;3.40;;;;;;;18.24;100.00;96726.19;5014283;28;20195;-87
2021/04/12 12:28:48;;;;;;;4.67;3.33;;;;;;;18.26;100.00;96718.84;5014494;28;20617;-86
2021/04/12 12:34:35;;;;;;;5.40;3.50;;;;;;;17.83;100.00;96723.47;5011302;28;20199;-86
2021/04/12 12:37:16;;;;;;;4.50;3.40;;;;;;;17.52;100.00;96716.63;5014121;28;20290;-87
2021/04/12 12:39:47;;;;;;;6.97;3.40;;;;;;;17.65;100.00;96715.94;5013059;28;20201;-87
2021/04/12 12:42:20;;;;;;;3.97;3.63;;;;;;;17.94;100.00;96709.66;5014163;28;20207;-87
2021/04/12 12:44:48;;;;;;;4.93;3.50;;;;;;;18.08;100.00;96701.75;5013934;28;20194;-87
2021/04/12 12:47:21;;;;;;;4.57;3.20;;;;;;;17.95;100.00;96703.31;5013761;28;20265;-87
2021/04/12 12:49:51;;;;;;;3.53;3.23;;;;;;;17.87;100.00;96692.81;5013722;28;20222;-87
2021/04/12 12:52:29;;;;;;;5.87;3.23;;;;;;;17.69;100.00;96690.59;5013465;28;20288;-86
2021/04/12 12:54:59;;;;;;;3.80;3.37;;;;;;;17.62;100.00;96691.56;5013576;28;20201;-87
2021/04/12 12:57:31;;;;;;;8.40;3.40;;;;;;;17.79;100.00;96688.47;5013481;28;20828;-87
2021/04/12 13:00:11;;;;;;;4.67;4.17;;;;;;;17.75;100.00;96679.22;5013877;28;20197;-87
2021/04/12 13:02:41;;;;;;;5.37;3.87;;;;;;;17.92;100.00;96687.75;5013570;28;20210;-87
2021/04/12 13:05:14;;;;;;;9.90;4.00;;;;;;;17.88;100.00;96681.19;5013927;28;20197;-87
2021/04/12 13:07:42;;;;;;;4.07;3.50;;;;;;;18.01;100.00;96673.28;5012807;28;20197;-83
2021/04/12 13:10:15;;;;;;;6.70;5.13;;;;;;;18.54;100.00;96667.41;5013340;28;20211;-86
2021/04/12 13:12:44;;;;;;;5.53;4.90;;;;;;;18.95;100.00;96659.38;5013533;28;20588;-87
2021/04/12 13:15:21;;;;;;;5.43;3.90;;;;;;;18.56;100.00;96670.69;5013362;28;20253;-87